Time;durP1;ratioP1;P1;durP2;ratioP2;P2;SDS_P1;SDS_P2;PMS_P1;PMS_P2;Temp;Humidity;BMP_temperature;BMP_pressure;BME280_temperature;BME280_humidity;BME280_pressure;Samples;Min_cycle;Max_cycle;Signal;HPM_P1;HPM_P2
2022/10/09 00:01:04;;;;;;;;;;;19.50;65.40;;;;;;4994240;28;19922;-67
2022/10/09 00:03:30;;;;;;;;;;;19.50;65.40;;;;;;4993098;28;19932;-67
2022/10/09 00:05:55;;;;;;;;;;;19.50;65.40;;;;;;4994191;28;20008;-68
2022/10/09 00:08:21;;;;;;;;;;;19.50;65.50;;;;;;4976179;28;20023;-67
2022/10/09 00:10:46;;;;;;;;;;;19.50;65.50;;;;;;4993084;28;19921;-67
2022/10/09 00:13:11;;;;;;;;;;;19.50;65.40;;;;;;4976515;28;19926;-67
2022/10/09 00:15:40;;;;;;;;;;;19.50;65.50;;;;;;4994060;28;20274;-67
2022/10/09 00:18:06;;;;;;;;;;;19.50;65.50;;;;;;4975511;28;19947;-67
2022/10/09 00:20:38;;;;;;;;;;;19.50;65.50;;;;;;4993975;28;19925;-67
2022/10/09 00:23:04;;;;;;;;;;;19.50;65.50;;;;;;4993812;28;19922;-67
2022/10/09 00:25:30;;;;;;;;;;;19.50;65.50;;;;;;4975350;28;19926;-67
2022/10/09 00:27:56;;;;;;;;;;;19.50;65.50;;;;;;4976160;28;19922;-67
2022/10/09 00:30:21;;;;;;;;;;;19.50;65.50;;;;;;4975381;28;19921;-67
2022/10/09 00:32:47;;;;;;;;;;;19.50;65.50;;;;;;4993678;28;19929;-67
2022/10/09 00:35:12;;;;;;;;;;;19.50;65.50;;;;;;4993440;28;20425;-67
2022/10/09 00:37:38;;;;;;;;;;;19.50;65.50;;;;;;4992940;28;19922;-67
2022/10/09 00:40:03;;;;;;;;;;;19.50;65.50;;;;;;4993456;28;19925;-67
2022/10/09 00:42:29;;;;;;;;;;;19.50;65.50;;;;;;4975731;28;19922;-67
2022/10/09 00:44:59;;;;;;;;;;;19.50;65.50;;;;;;4992659;28;20016;-67
2022/10/09 00:47:32;;;;;;;;;;;19.40;65.50;;;;;;4993196;28;19991;-67
2022/10/09 00:49:59;;;;;;;;;;;19.50;65.50;;;;;;4976506;28;19922;-67
2022/10/09 00:52:24;;;;;;;;;;;19.50;65.50;;;;;;4975217;28;20391;-67
2022/10/09 00:54:50;;;;;;;;;;;19.50;65.50;;;;;;4993415;28;19921;-67
2022/10/09 00:57:15;;;;;;;;;;;19.50;65.50;;;;;;4993177;28;19928;-67
2022/10/09 00:59:41;;;;;;;;;;;19.40;65.50;;;;;;4975532;28;19922;-67
2022/10/09 01:02:06;;;;;;;;;;;19.40;65.50;;;;;;4993382;28;19922;-67
2022/10/09 01:04:32;;;;;;;;;;;19.40;65.50;;;;;;4976290;28;19925;-67
2022/10/09 01:07:07;;;;;;;;;;;19.40;65.50;;;;;;4992771;28;19918;-67
2022/10/09 01:09:36;;;;;;;;;;;19.40;65.50;;;;;;4959881;28;20024;-67
2022/10/09 01:12:08;;;;;;;;;;;19.40;65.50;;;;;;4993114;28;19945;-67
2022/10/09 01:14:36;;;;;;;;;;;19.40;65.50;;;;;;4959032;28;19968;-67
2022/10/09 01:17:06;;;;;;;;;;;19.40;65.50;;;;;;4959940;28;19932;-67
2022/10/09 01:19:51;;;;;;;;;;;19.40;65.40;;;;;;4958949;28;19981;-67
2022/10/09 01:22:25;;;;;;;;;;;19.40;65.50;;;;;;4992848;28;19922;-67
2022/10/09 01:24:54;;;;;;;;;;;19.40;65.40;;;;;;4993467;28;19926;-67
2022/10/09 01:27:20;;;;;;;;;;;19.40;65.50;;;;;;4992300;28;19921;-67
2022/10/09 01:29:47;;;;;;;;;;;19.40;65.50;;;;;;4975946;28;20349;-67
2022/10/09 01:32:13;;;;;;;;;;;19.40;65.50;;;;;;4975648;28;19930;-67
2022/10/09 01:34:39;;;;;;;;;;;19.40;65.50;;;;;;4975171;28;19921;-68
2022/10/09 01:37:04;;;;;;;;;;;19.40;65.50;;;;;;4959395;28;20328;-66
2022/10/09 01:39:30;;;;;;;;;;;19.30;65.40;;;;;;4976460;28;19928;-67
2022/10/09 01:41:55;;;;;;;;;;;19.40;65.50;;;;;;4962082;28;19961;-67
2022/10/09 01:44:22;;;;;;;;;;;19.30;65.40;;;;;;4978793;28;19928;-67
2022/10/09 01:46:47;;;;;;;;;;;19.30;65.40;;;;;;4996452;28;19953;-67
2022/10/09 01:49:19;;;;;;;;;;;19.30;65.40;;;;;;4995307;28;19961;-67
2022/10/09 01:51:51;;;;;;;;;;;19.30;65.40;;;;;;4996238;28;20380;-67
2022/10/09 01:54:18;;;;;;;;;;;19.30;65.40;;;;;;4978827;28;20012;-67
2022/10/09 01:56:43;;;;;;;;;;;19.30;65.40;;;;;;4978244;28;19993;-67
2022/10/09 01:59:12;;;;;;;;;;;19.30;65.40;;;;;;4978591;28;19926;-67
2022/10/09 02:01:38;;;;;;;;;;;19.30;65.40;;;;;;4977909;28;19976;-67
2022/10/09 02:04:05;;;;;;;;;;;19.30;65.40;;;;;;4961355;28;20368;-67
2022/10/09 02:06:30;;;;;;;;;;;19.30;65.40;;;;;;4977786;28;19922;-67
2022/10/09 02:08:56;;;;;;;;;;;19.30;65.40;;;;;;4977068;28;20037;-67
2022/10/09 02:11:22;;;;;;;;;;;19.30;65.40;;;;;;4978207;28;19925;-67
2022/10/09 02:13:48;;;;;;;;;;;19.30;65.40;;;;;;4978904;28;19984;-67
2022/10/09 02:16:32;;;;;;;;;;;19.30;65.50;;;;;;4961695;28;20330;-67
2022/10/09 02:19:00;;;;;;;;;;;19.30;65.40;;;;;;4995881;28;20297;-67
2022/10/09 02:21:28;;;;;;;;;;;19.30;65.40;;;;;;4978087;28;19932;-67
2022/10/09 02:23:53;;;;;;;;;;;19.30;65.40;;;;;;4978032;28;19973;-67
2022/10/09 02:26:19;;;;;;;;;;;19.30;65.40;;;;;;4977919;28;19965;-67
2022/10/09 02:28:44;;;;;;;;;;;19.30;65.40;;;;;;4962308;28;19928;-67
2022/10/09 02:31:11;;;;;;;;;;;19.30;65.40;;;;;;4960994;28;19972;-67
2022/10/09 02:33:37;;;;;;;;;;;19.30;65.50;;;;;;4978457;28;19921;-67
2022/10/09 02:36:03;;;;;;;;;;;19.20;65.40;;;;;;4995647;28;20009;-67
2022/10/09 02:38:28;;;;;;;;;;;19.30;65.50;;;;;;4977289;28;19926;-67
2022/10/09 02:41:00;;;;;;;;;;;19.30;65.40;;;;;;4995331;28;19921;-67
2022/10/09 02:43:26;;;;;;;;;;;19.30;65.50;;;;;;5010321;28;19926;-67
2022/10/09 02:45:51;;;;;;;;;;;19.30;65.50;;;;;;4994818;28;19921;-67
2022/10/09 02:48:17;;;;;;;;;;;19.30;65.50;;;;;;4974403;28;19922;-67
2022/10/09 02:50:42;;;;;;;;;;;19.30;65.50;;;;;;4975066;28;19968;-67
2022/10/09 02:53:08;;;;;;;;;;;19.30;65.40;;;;;;4973572;28;19922;-68
2022/10/09 02:55:34;;;;;;;;;;;19.30;65.50;;;;;;4975810;28;19922;-67
2022/10/09 02:58:00;;;;;;;;;;;19.30;65.50;;;;;;4973791;28;19929;-67
2022/10/09 03:00:25;;;;;;;;;;;19.30;65.50;;;;;;4975425;28;19926;-67
2022/10/09 03:02:51;;;;;;;;;;;19.40;65.50;;;;;;4975938;28;20394;-67
2022/10/09 03:05:16;;;;;;;;;;;19.40;65.50;;;;;;4974170;28;19922;-67
2022/10/09 03:07:49;;;;;;;;;;;19.40;65.40;;;;;;4974378;28;19969;-67
2022/10/09 03:10:16;;;;;;;;;;;19.40;65.40;;;;;;4975588;28;19926;-67
2022/10/09 03:12:41;;;;;;;;;;;19.40;65.40;;;;;;4974833;28;19929;-67
2022/10/09 03:15:07;;;;;;;;;;;19.40;65.40;;;;;;4974176;28;19922;-68
2022/10/09 03:17:32;;;;;;;;;;;19.40;65.40;;;;;;4975758;28;19973;-66
2022/10/09 03:19:58;;;;;;;;;;;19.40;65.40;;;;;;4974871;28;19976;-66
2022/10/09 03:22:23;;;;;;;;;;;19.50;65.50;;;;;;4975323;28;20281;-67
2022/10/09 03:24:49;;;;;;;;;;;19.50;65.40;;;;;;4975219;28;19922;-67
2022/10/09 03:27:14;;;;;;;;;;;19.50;65.40;;;;;;4973094;28;20346;-67
2022/10/09 03:29:40;;;;;;;;;;;19.60;65.40;;;;;;4973736;28;19925;-68
2022/10/09 03:32:05;;;;;;;;;;;19.60;65.30;;;;;;4973794;28;19928;-66
2022/10/09 03:34:31;;;;;;;;;;;19.60;65.30;;;;;;4972975;28;19972;-67
2022/10/09 03:36:56;;;;;;;;;;;19.60;65.30;;;;;;4975178;28;20009;-67
2022/10/09 03:39:22;;;;;;;;;;;19.60;65.30;;;;;;4974664;28;19948;-67
2022/10/09 03:41:47;;;;;;;;;;;19.70;65.30;;;;;;4973114;28;19954;-66
2022/10/09 03:44:13;;;;;;;;;;;19.70;65.30;;;;;;4973103;28;20285;-67
2022/10/09 03:46:38;;;;;;;;;;;19.70;65.30;;;;;;4973543;28;19922;-67
2022/10/09 03:49:04;;;;;;;;;;;19.70;65.30;;;;;;4988368;28;19932;-67
2022/10/09 03:51:29;;;;;;;;;;;19.70;65.20;;;;;;4976454;28;20072;-67
2022/10/09 03:53:54;;;;;;;;;;;19.70;65.20;;;;;;4976945;28;19928;-66
2022/10/09 03:56:20;;;;;;;;;;;19.80;65.30;;;;;;4993242;28;20016;-67
2022/10/09 03:58:45;;;;;;;;;;;19.80;65.20;;;;;;4976467;28;19952;-67
2022/10/09 04:01:11;;;;;;;;;;;19.80;65.20;;;;;;4975121;28;20521;-67
2022/10/09 04:03:36;;;;;;;;;;;19.80;65.20;;;;;;4976287;28;19925;-66
2022/10/09 04:06:02;;;;;;;;;;;19.80;65.20;;;;;;4975800;28;19925;-66
2022/10/09 04:08:28;;;;;;;;;;;19.80;65.20;;;;;;4992490;28;19921;-67
2022/10/09 04:10:57;;;;;;;;;;;19.80;65.10;;;;;;4993842;28;19922;-66
2022/10/09 04:13:22;;;;;;;;;;;19.80;65.80;;;;;;4976376;28;19925;-67
2022/10/09 04:15:48;;;;;;;;;;;19.80;65.10;;;;;;5008231;28;20324;-67
2022/10/09 04:18:14;;;;;;;;;;;19.90;65.10;;;;;;5008617;28;19972;-67
2022/10/09 04:20:43;;;;;;;;;;;19.90;65.10;;;;;;5008918;28;20373;-67
2022/10/09 04:23:08;;;;;;;;;;;19.90;65.10;;;;;;4992745;28;19975;-67
2022/10/09 04:25:34;;;;;;;;;;;19.90;65.10;;;;;;4993629;28;19961;-67
2022/10/09 04:27:59;;;;;;;;;;;19.90;65.10;;;;;;5008804;28;20342;-66
2022/10/09 04:30:24;;;;;;;;;;;19.90;65.10;;;;;;4992880;28;20364;-66
2022/10/09 04:32:50;;;;;;;;;;;19.90;65.10;;;;;;5009119;28;19922;-66
2022/10/09 04:35:15;;;;;;;;;;;19.90;65.10;;;;;;4993441;28;19921;-66
2022/10/09 04:37:41;;;;;;;;;;;19.90;65.10;;;;;;4992715;28;19922;-66
2022/10/09 04:40:07;;;;;;;;;;;20.00;65.10;;;;;;4975847;28;19922;-66
2022/10/09 04:42:32;;;;;;;;;;;20.00;65.10;;;;;;4993566;28;19926;-66
2022/10/09 04:44:58;;;;;;;;;;;20.00;65.10;;;;;;4992692;28;19969;-67
2022/10/09 04:47:23;;;;;;;;;;;20.00;65.00;;;;;;4992963;28;19921;-67
2022/10/09 04:49:49;;;;;;;;;;;20.00;65.00;;;;;;5008642;28;19928;-66
2022/10/09 04:52:17;;;;;;;;;;;20.00;65.00;;;;;;4974830;28;19929;-66
2022/10/09 04:54:43;;;;;;;;;;;20.00;65.00;;;;;;5008872;28;19917;-66
2022/10/09 04:57:08;;;;;;;;;;;20.00;65.00;;;;;;4992740;28;19922;-66
2022/10/09 04:59:33;;;;;;;;;;;20.00;65.00;;;;;;4992978;28;19922;-66
2022/10/09 05:01:59;;;;;;;;;;;20.00;64.90;;;;;;4975965;28;19921;-67
2022/10/09 05:04:24;;;;;;;;;;;20.00;64.90;;;;;;4993262;28;19925;-66
2022/10/09 05:06:50;;;;;;;;;;;20.00;64.90;;;;;;5007892;28;19922;-66
2022/10/09 05:09:15;;;;;;;;;;;20.00;64.90;;;;;;5008399;28;20392;-66
2022/10/09 05:11:41;;;;;;;;;;;20.00;64.90;;;;;;5007752;28;19921;-66
2022/10/09 05:14:07;;;;;;;;;;;20.00;64.80;;;;;;4993722;28;20258;-66
2022/10/09 05:16:32;;;;;;;;;;;20.00;64.80;;;;;;4997166;28;20033;-66
2022/10/09 05:18:58;;;;;;;;;;;20.10;64.90;;;;;;4996431;28;19966;-66
2022/10/09 05:21:23;;;;;;;;;;;20.10;64.90;;;;;;4979110;28;19976;-66
2022/10/09 05:23:49;;;;;;;;;;;20.10;64.80;;;;;;4997282;28;19928;-66
2022/10/09 05:26:16;;;;;;;;;;;20.10;64.80;;;;;;5010983;28;19922;-66
2022/10/09 05:28:41;;;;;;;;;;;20.10;64.80;;;;;;4997098;28;19922;-66
2022/10/09 05:31:07;;;;;;;;;;;20.10;64.80;;;;;;4996622;28;19975;-66
2022/10/09 05:33:32;;;;;;;;;;;20.10;64.80;;;;;;4996195;28;19926;-67
2022/10/09 05:35:58;;;;;;;;;;;20.10;64.80;;;;;;4996757;28;20289;-66
2022/10/09 05:38:24;;;;;;;;;;;20.10;64.80;;;;;;4996522;28;19967;-66
2022/10/09 05:40:54;;;;;;;;;;;20.10;64.70;;;;;;5011047;28;19921;-66
2022/10/09 05:43:19;;;;;;;;;;;20.10;64.80;;;;;;4996383;28;19929;-66
2022/10/09 05:45:45;;;;;;;;;;;20.10;65.30;;;;;;4962882;28;19917;-66
2022/10/09 05:48:10;;;;;;;;;;;20.10;64.70;;;;;;4995300;28;19921;-66
2022/10/09 05:50:36;;;;;;;;;;;20.10;64.70;;;;;;5011506;28;19928;-66
2022/10/09 05:53:01;;;;;;;;;;;20.10;64.70;;;;;;5011693;28;20008;-66
2022/10/09 05:55:27;;;;;;;;;;;20.10;64.70;;;;;;4995147;28;19921;-66
2022/10/09 05:57:52;;;;;;;;;;;20.10;64.60;;;;;;4996338;28;19979;-66
2022/10/09 06:00:18;;;;;;;;;;;20.10;64.60;;;;;;4996201;28;19922;-66
2022/10/09 06:02:43;;;;;;;;;;;20.10;64.60;;;;;;4995491;28;19922;-66
2022/10/09 06:05:09;;;;;;;;;;;20.10;64.60;;;;;;5011060;28;19960;-66
2022/10/09 06:07:34;;;;;;;;;;;20.20;64.60;;;;;;5011151;28;20266;-66
2022/10/09 06:10:00;;;;;;;;;;;20.20;64.60;;;;;;4995450;28;19922;-67
2022/10/09 06:12:25;;;;;;;;;;;20.20;64.60;;;;;;5010967;28;20370;-66
2022/10/09 06:14:50;;;;;;;;;;;20.20;64.60;;;;;;5010500;28;19971;-66
2022/10/09 06:17:16;;;;;;;;;;;20.20;64.60;;;;;;5010768;28;19945;-66
2022/10/09 06:19:41;;;;;;;;;;;20.20;64.50;;;;;;4996155;28;19922;-66
2022/10/09 06:22:07;;;;;;;;;;;20.20;64.50;;;;;;5009895;28;20708;-66
2022/10/09 06:24:32;;;;;;;;;;;20.20;64.50;;;;;;4995680;28;20012;-67
2022/10/09 06:26:58;;;;;;;;;;;20.20;64.50;;;;;;4995372;28;20267;-66
2022/10/09 06:29:23;;;;;;;;;;;20.20;64.40;;;;;;4994922;28;19921;-66
2022/10/09 06:31:49;;;;;;;;;;;20.20;64.50;;;;;;4995933;28;20357;-66
2022/10/09 06:34:14;;;;;;;;;;;20.20;64.40;;;;;;4995582;28;20002;-66
2022/10/09 06:36:40;;;;;;;;;;;20.20;64.40;;;;;;4994795;28;19929;-66
2022/10/09 06:39:06;;;;;;;;;;;20.30;64.50;;;;;;4995202;28;19973;-66
2022/10/09 06:41:31;;;;;;;;;;;20.30;64.40;;;;;;4978188;28;19922;-66
2022/10/09 06:43:57;;;;;;;;;;;20.20;64.40;;;;;;4994818;28;19922;-66
2022/10/09 06:46:24;;;;;;;;;;;20.30;64.40;;;;;;4994976;28;20337;-66
2022/10/09 06:48:49;;;;;;;;;;;20.20;64.40;;;;;;4995264;28;19975;-65
2022/10/09 06:51:16;;;;;;;;;;;20.20;64.30;;;;;;4994268;28;19925;-66
2022/10/09 06:53:42;;;;;;;;;;;20.30;64.40;;;;;;4977786;28;20350;-65
2022/10/09 06:56:09;;;;;;;;;;;20.30;64.30;;;;;;4995085;28;19968;-66
2022/10/09 06:58:35;;;;;;;;;;;20.30;64.40;;;;;;4994527;28;19922;-67
2022/10/09 07:01:04;;;;;;;;;;;20.30;64.30;;;;;;4978001;28;20281;-66
2022/10/09 07:03:30;;;;;;;;;;;20.30;64.30;;;;;;4995070;28;19922;-66
2022/10/09 07:06:05;;;;;;;;;;;20.30;64.30;;;;;;4994560;28;19922;-66
2022/10/09 07:08:31;;;;;;;;;;;20.30;64.30;;;;;;4995050;28;19921;-65
2022/10/09 07:10:56;;;;;;;;;;;20.30;64.30;;;;;;4994743;28;20306;-66
2022/10/09 07:13:22;;;;;;;;;;;20.30;64.30;;;;;;4994099;28;20389;-66
2022/10/09 07:15:47;;;;;;;;;;;20.30;64.30;;;;;;4995074;28;19928;-66
2022/10/09 07:18:14;;;;;;;;;;;20.40;64.30;;;;;;5009026;28;19933;-66
2022/10/09 07:20:40;;;;;;;;;;;20.40;64.30;;;;;;4994751;28;20456;-65
2022/10/09 07:23:05;;;;;;;;;;;20.30;64.20;;;;;;5009607;28;19973;-66
2022/10/09 07:25:31;;;;;;;;;;;20.40;64.30;;;;;;4993786;28;20008;-65
2022/10/09 07:27:56;;;;;;;;;;;20.40;64.20;;;;;;4994721;28;20354;-66
2022/10/09 07:30:22;;;;;;;;;;;20.40;64.20;;;;;;5009767;28;19922;-66
2022/10/09 07:32:47;;;;;;;;;;;20.40;64.10;;;;;;4993811;28;19929;-66
2022/10/09 07:35:12;;;;;;;;;;;20.40;64.10;;;;;;4976687;28;19948;-65
2022/10/09 07:37:38;;;;;;;;;;;20.40;64.10;;;;;;5008879;28;19925;-66
2022/10/09 07:40:04;;;;;;;;;;;20.40;64.10;;;;;;4993862;28;19980;-66
2022/10/09 07:42:29;;;;;;;;;;;20.50;64.10;;;;;;5009079;28;19921;-66
2022/10/09 07:44:55;;;;;;;;;;;20.50;64.00;;;;;;4994406;28;19928;-66
2022/10/09 07:47:20;;;;;;;;;;;20.50;64.00;;;;;;4993052;28;19921;-67
2022/10/09 07:49:46;;;;;;;;;;;20.50;64.00;;;;;;4994407;28;19929;-65
2022/10/09 07:52:11;;;;;;;;;;;20.50;63.90;;;;;;4976418;28;19926;-66
2022/10/09 07:54:36;;;;;;;;;;;20.60;64.00;;;;;;4993439;28;19922;-67
2022/10/09 07:57:02;;;;;;;;;;;20.50;63.90;;;;;;5009385;28;19922;-66
2022/10/09 07:59:27;;;;;;;;;;;20.60;64.00;;;;;;4994060;28;20038;-66
2022/10/09 08:01:53;;;;;;;;;;;20.50;63.90;;;;;;4993411;28;20443;-66
2022/10/09 08:04:18;;;;;;;;;;;20.60;63.90;;;;;;4993741;28;19929;-66
2022/10/09 08:06:44;;;;;;;;;;;20.60;63.80;;;;;;4993841;28;19926;-66
2022/10/09 08:09:09;;;;;;;;;;;20.60;63.80;;;;;;4993059;28;19922;-66
2022/10/09 08:11:39;;;;;;;;;;;20.60;63.80;;;;;;4993994;28;20016;-66
2022/10/09 08:14:04;;;;;;;;;;;20.60;63.70;;;;;;4993897;28;19926;-66
2022/10/09 08:16:30;;;;;;;;;;;20.60;63.70;;;;;;4993063;28;19922;-66
2022/10/09 08:18:59;;;;;;;;;;;20.70;63.80;;;;;;4976309;28;20343;-66
2022/10/09 08:21:26;;;;;;;;;;;20.70;63.80;;;;;;4992899;28;19925;-66
2022/10/09 08:23:53;;;;;;;;;;;20.70;63.80;;;;;;4976652;28;20384;-66
2022/10/09 08:26:19;;;;;;;;;;;20.70;63.70;;;;;;4975926;28;19925;-66
2022/10/09 08:28:48;;;;;;;;;;;20.70;63.70;;;;;;4993350;28;19926;-66
2022/10/09 08:31:14;;;;;;;;;;;20.70;63.70;;;;;;4993395;28;20292;-66
2022/10/09 08:33:40;;;;;;;;;;;20.70;63.70;;;;;;4993855;28;19921;-66
2022/10/09 08:36:06;;;;;;;;;;;20.70;63.70;;;;;;4975679;28;19922;-66
2022/10/09 08:38:32;;;;;;;;;;;20.70;63.60;;;;;;4993789;28;19922;-66
2022/10/09 08:41:00;;;;;;;;;;;20.80;63.70;;;;;;4960336;28;19929;-66
2022/10/09 08:43:28;;;;;;;;;;;20.70;63.60;;;;;;4975342;28;19926;-66
2022/10/09 08:45:53;;;;;;;;;;;20.80;63.60;;;;;;4976443;28;19926;-67
2022/10/09 08:48:19;;;;;;;;;;;20.80;63.60;;;;;;4976546;28;19928;-66
2022/10/09 08:50:49;;;;;;;;;;;20.80;63.70;;;;;;4979660;28;19922;-65
2022/10/09 08:53:18;;;;;;;;;;;20.80;63.60;;;;;;4997146;28;20292;-66
2022/10/09 08:55:44;;;;;;;;;;;20.80;63.60;;;;;;5012397;28;20382;-66
2022/10/09 08:58:13;;;;;;;;;;;20.80;63.60;;;;;;4978626;28;19929;-66
2022/10/09 09:00:49;;;;;;;;;;;20.80;64.10;;;;;;4964016;28;20366;-66
2022/10/09 09:03:22;;;;;;;;;;;20.80;63.50;;;;;;4979782;28;19921;-66
2022/10/09 09:05:54;;;;;;;;;;;20.80;63.50;;;;;;4963300;28;19928;-65
2022/10/09 09:08:32;;;;;;;;;;;20.80;63.50;;;;;;4996950;28;20266;-67
2022/10/09 09:10:58;;;;;;;;;;;20.80;63.50;;;;;;4979159;28;20024;-66
2022/10/09 09:13:36;;;;;;;;;;;20.90;63.50;;;;;;4996990;28;19956;-66
2022/10/09 09:16:12;;;;;;;;;;;20.90;63.50;;;;;;4979618;28;20281;-66
2022/10/09 09:18:46;;;;;;;;;;;20.90;63.50;;;;;;4978703;28;20369;-66
2022/10/09 09:21:21;;;;;;;;;;;20.90;63.50;;;;;;4979266;28;20377;-67
2022/10/09 09:23:47;;;;;;;;;;;20.90;63.50;;;;;;5011999;28;20024;-67
2022/10/09 09:26:14;;;;;;;;;;;20.90;63.40;;;;;;4978663;28;19925;-66
2022/10/09 09:28:40;;;;;;;;;;;20.90;63.40;;;;;;4996736;28;20370;-67
2022/10/09 09:31:07;;;;;;;;;;;21.00;63.50;;;;;;4996672;28;19976;-67
2022/10/09 09:33:43;;;;;;;;;;;20.90;63.40;;;;;;4978491;28;20378;-66
2022/10/09 09:36:22;;;;;;;;;;;20.90;63.40;;;;;;4962823;28;19921;-66
2022/10/09 09:38:47;;;;;;;;;;;20.90;63.40;;;;;;4978692;28;19976;-66
2022/10/09 09:41:13;;;;;;;;;;;20.90;63.40;;;;;;4978948;28;19930;-66
2022/10/09 09:43:38;;;;;;;;;;;20.90;63.40;;;;;;4979095;28;20266;-66
2022/10/09 09:46:08;;;;;;;;;;;20.90;63.40;;;;;;4995806;28;20386;-66
2022/10/09 09:48:38;;;;;;;;;;;21.00;63.50;;;;;;4962650;28;20400;-66
2022/10/09 09:51:04;;;;;;;;;;;20.90;63.40;;;;;;4996651;28;19930;-66
2022/10/09 09:53:36;;;;;;;;;;;20.90;63.40;;;;;;4978059;28;19926;-66
2022/10/09 09:56:02;;;;;;;;;;;20.90;63.50;;;;;;4996482;28;19929;-66
2022/10/09 09:58:35;;;;;;;;;;;20.90;63.40;;;;;;5011046;28;19921;-67
2022/10/09 10:01:02;;;;;;;;;;;20.90;63.40;;;;;;4961583;28;19957;-67
2022/10/09 10:03:27;;;;;;;;;;;20.90;63.40;;;;;;4996076;28;19928;-67
2022/10/09 10:05:53;;;;;;;;;;;20.90;63.50;;;;;;4996073;28;19925;-67
2022/10/09 10:08:18;;;;;;;;;;;20.90;63.40;;;;;;4977605;28;19922;-67
2022/10/09 10:10:45;;;;;;;;;;;20.90;63.50;;;;;;5011541;28;19972;-67
2022/10/09 10:13:11;;;;;;;;;;;20.80;63.40;;;;;;4978459;28;19991;-67
2022/10/09 10:15:37;;;;;;;;;;;20.80;63.50;;;;;;4977536;28;20406;-67
2022/10/09 10:18:06;;;;;;;;;;;20.80;63.50;;;;;;4994241;28;20449;-66
2022/10/09 10:20:32;;;;;;;;;;;20.80;64.10;;;;;;4961446;28;19921;-66
2022/10/09 10:22:58;;;;;;;;;;;20.80;63.50;;;;;;4975824;28;20297;-67
2022/10/09 10:25:25;;;;;;;;;;;20.80;63.40;;;;;;4974237;28;19922;-68
2022/10/09 10:27:51;;;;;;;;;;;20.80;63.40;;;;;;4993403;28;19921;-66
2022/10/09 10:30:18;;;;;;;;;;;20.80;63.40;;;;;;4989674;28;19929;-65
2022/10/09 10:32:52;;;;;;;;;;;20.80;63.50;;;;;;5007396;28;19952;-66
2022/10/09 10:35:18;;;;;;;;;;;20.80;63.60;;;;;;4991744;28;20019;-65
2022/10/09 10:38:04;;;;;;;;;;;20.80;63.60;;;;;;5007190;28;19984;-65
2022/10/09 10:40:31;;;;;;;;;;;20.80;63.70;;;;;;4993888;28;19928;-65
2022/10/09 10:43:01;;;;;;;;;;;20.80;63.80;;;;;;4993903;28;19922;-65
2022/10/09 10:45:32;;;;;;;;;;;20.80;63.80;;;;;;4992631;28;20023;-65
2022/10/09 10:47:58;;;;;;;;;;;20.80;63.80;;;;;;5008171;28;19921;-65
2022/10/09 10:50:24;;;;;;;;;;;20.80;63.80;;;;;;5008323;28;19933;-65
2022/10/09 10:52:49;;;;;;;;;;;20.80;63.80;;;;;;5009603;28;19969;-64
2022/10/09 10:55:19;;;;;;;;;;;20.80;63.90;;;;;;5009572;28;20277;-65
2022/10/09 10:58:11;;;;;;;;;;;20.80;63.90;;;;;;4960007;28;19961;-66
2022/10/09 11:00:37;;;;;;;;;;;20.80;63.90;;;;;;4973064;28;19921;-66
2022/10/09 11:03:06;;;;;;;;;;;20.80;63.90;;;;;;4994810;28;19961;-66
2022/10/09 11:05:55;;;;;;;;;;;20.80;63.90;;;;;;5008751;28;20298;-64
2022/10/09 11:08:28;;;;;;;;;;;20.80;63.90;;;;;;4983195;28;19921;-64
2022/10/09 11:10:57;;;;;;;;;;;20.80;64.00;;;;;;4975652;28;19933;-63
2022/10/09 11:13:28;;;;;;;;;;;20.90;64.10;;;;;;4993319;28;19917;-65
2022/10/09 11:15:58;;;;;;;;;;;20.90;64.00;;;;;;4994753;28;19925;-66
2022/10/09 11:18:23;;;;;;;;;;;20.80;63.90;;;;;;4993713;28;19926;-65
2022/10/09 11:21:00;;;;;;;;;;;20.80;63.80;;;;;;4977099;28;20012;-65
2022/10/09 11:23:52;;;;;;;;;;;20.90;63.90;;;;;;4994480;28;19979;-66
2022/10/09 11:26:36;;;;;;;;;;;20.80;63.90;;;;;;4963132;28;20372;-64
2022/10/09 11:29:07;;;;;;;;;;;20.80;63.80;;;;;;4994326;28;20389;-64
2022/10/09 11:31:34;;;;;;;;;;;20.80;64.50;;;;;;4960043;28;20008;-65
2022/10/09 11:34:15;;;;;;;;;;;20.90;64.10;;;;;;5110717;27;19912;-64
2022/10/09 11:36:41;;;;;;;;;;;20.80;64.10;;;;;;5109381;28;19932;-63
2022/10/09 11:39:10;;;;;;;;;;;20.80;64.10;;;;;;5108428;28;19927;-63
2022/10/09 11:41:35;;;;;;;;;;;20.80;64.10;;;;;;5110589;28;19924;-63
2022/10/09 11:44:07;;;;;;;;;;;20.80;64.20;;;;;;5109583;28;20283;-64
2022/10/09 11:46:44;;;;;;;;;;;20.80;64.20;;;;;;5109986;28;20406;-64
2022/10/09 11:49:12;;;;;;;;;;;20.80;64.20;;;;;;5110456;28;19927;-63
2022/10/09 11:51:44;;;;;;;;;;;20.80;64.20;;;;;;5110485;28;19928;-63
2022/10/09 11:54:11;;;;;;;;;;;20.90;64.30;;;;;;5109423;28;19990;-64
2022/10/09 11:56:37;;;;;;;;;;;20.80;64.30;;;;;;5092417;28;19968;-63
2022/10/09 11:59:03;;;;;;;;;;;20.90;64.30;;;;;;5110804;28;19975;-64
2022/10/09 12:01:32;;;;;;;;;;;20.80;64.30;;;;;;5099625;28;19924;-64
2022/10/09 12:04:05;;;;;;;;;;;20.80;64.30;;;;;;5087906;28;19924;-64
2022/10/09 12:06:31;;;;;;;;;;;20.90;64.30;;;;;;5087011;28;19928;-64
2022/10/09 12:09:06;;;;;;;;;;;20.90;64.30;;;;;;5089512;28;19985;-64
2022/10/09 12:11:32;;;;;;;;;;;20.90;64.30;;;;;;5088735;28;19924;-65
2022/10/09 12:13:59;;;;;;;;;;;20.90;64.30;;;;;;5088116;28;19924;-64
2022/10/09 12:16:39;;;;;;;;;;;20.80;64.20;;;;;;5087640;28;20023;-63
2022/10/09 12:19:25;;;;;;;;;;;20.80;64.20;;;;;;5121847;28;19931;-63
2022/10/09 12:21:51;;;;;;;;;;;20.90;64.30;;;;;;5089072;28;19930;-63
2022/10/09 12:24:21;;;;;;;;;;;20.90;64.30;;;;;;5087968;28;20027;-63
2022/10/09 12:26:47;;;;;;;;;;;20.90;64.30;;;;;;5070389;28;19925;-63
2022/10/09 12:29:15;;;;;;;;;;;20.90;64.20;;;;;;5086690;28;19931;-63
2022/10/09 12:31:40;;;;;;;;;;;20.90;64.20;;;;;;5098953;28;20299;-64
2022/10/09 12:34:22;;;;;;;;;;;20.90;64.20;;;;;;5090999;28;19924;-63
2022/10/09 12:36:48;;;;;;;;;;;20.90;64.20;;;;;;5107804;28;19946;-63
2022/10/09 12:39:22;;;;;;;;;;;20.90;64.20;;;;;;5108091;28;20368;-63
2022/10/09 12:41:49;;;;;;;;;;;20.90;64.20;;;;;;5107971;28;19928;-63
2022/10/09 12:44:24;;;;;;;;;;;21.00;64.20;;;;;;5102736;28;20022;-63
2022/10/09 12:46:49;;;;;;;;;;;21.00;64.20;;;;;;5096145;28;19924;-64
2022/10/09 12:49:19;;;;;;;;;;;21.00;64.10;;;;;;5075758;28;19925;-63
2022/10/09 12:51:52;;;;;;;;;;;21.00;64.10;;;;;;5076862;28;19964;-63
2022/10/09 12:54:18;;;;;;;;;;;21.00;64.10;;;;;;5084843;28;19935;-63
2022/10/09 12:56:43;;;;;;;;;;;21.00;64.10;;;;;;5074455;28;19925;-62
2022/10/09 12:59:09;;;;;;;;;;;21.10;64.20;;;;;;5073097;28;20014;-62
2022/10/09 13:01:34;;;;;;;;;;;21.10;64.20;;;;;;5074005;28;19978;-63
2022/10/09 13:04:03;;;;;;;;;;;21.10;64.10;;;;;;5074821;28;19924;-62
2022/10/09 13:06:34;;;;;;;;;;;21.10;64.10;;;;;;5074761;28;19930;-62
2022/10/09 13:09:00;;;;;;;;;;;21.10;64.10;;;;;;5073533;28;20393;-61
2022/10/09 13:11:26;;;;;;;;;;;21.10;64.10;;;;;;5092700;28;19928;-62
2022/10/09 13:13:51;;;;;;;;;;;21.10;64.10;;;;;;5095301;28;19928;-62
2022/10/09 13:16:17;;;;;;;;;;;21.20;64.10;;;;;;5094061;28;19930;-61
2022/10/09 13:18:42;;;;;;;;;;;21.20;64.10;;;;;;5094784;28;20330;-62
2022/10/09 13:21:25;;;;;;;;;;;21.20;64.10;;;;;;5093461;28;20015;-62
2022/10/09 13:23:51;;;;;;;;;;;21.30;64.10;;;;;;5076583;28;19971;-63
2022/10/09 13:26:22;;;;;;;;;;;21.30;64.00;;;;;;5074166;28;20004;-62
2022/10/09 13:28:48;;;;;;;;;;;21.30;63.90;;;;;;5073709;28;19925;-63
2022/10/09 13:31:13;;;;;;;;;;;21.30;63.80;;;;;;5073761;28;20360;-63
2022/10/09 13:33:39;;;;;;;;;;;21.40;63.90;;;;;;5089889;28;19924;-62
2022/10/09 13:36:04;;;;;;;;;;;21.40;63.80;;;;;;5094605;28;20376;-62
2022/10/09 13:38:30;;;;;;;;;;;21.40;63.70;;;;;;5109793;28;19927;-63
2022/10/09 13:40:55;;;;;;;;;;;21.50;63.70;;;;;;5094898;28;20410;-63
2022/10/09 13:43:21;;;;;;;;;;;21.50;63.50;;;;;;5076489;28;19931;-63
2022/10/09 13:45:47;;;;;;;;;;;21.60;63.50;;;;;;5075992;28;19924;-63
2022/10/09 13:48:12;;;;;;;;;;;21.60;63.40;;;;;;5094179;28;19928;-64
2022/10/09 13:50:38;;;;;;;;;;;21.60;63.30;;;;;;5094637;28;19924;-63
2022/10/09 13:53:03;;;;;;;;;;;21.70;63.30;;;;;;5094093;28;19931;-63
2022/10/09 13:55:29;;;;;;;;;;;21.70;63.30;;;;;;5093760;28;19929;-63
2022/10/09 13:57:55;;;;;;;;;;;21.80;63.30;;;;;;5094542;28;20295;-63
2022/10/09 14:00:20;;;;;;;;;;;21.80;63.20;;;;;;5093273;28;19930;-63
2022/10/09 14:02:46;;;;;;;;;;;21.90;63.20;;;;;;5094538;28;19924;-63
2022/10/09 14:05:11;;;;;;;;;;;21.90;63.10;;;;;;5094030;28;19974;-63
2022/10/09 14:07:37;;;;;;;;;;;22.00;63.00;;;;;;5093627;28;19931;-63
2022/10/09 14:10:03;;;;;;;;;;;22.00;62.90;;;;;;5094486;28;19967;-63
2022/10/09 14:12:28;;;;;;;;;;;22.10;62.90;;;;;;5093927;28;19946;-63
2022/10/09 14:14:53;;;;;;;;;;;22.10;62.90;;;;;;5093875;28;20341;-64
2022/10/09 14:17:19;;;;;;;;;;;22.10;62.80;;;;;;5094005;28;19985;-63